Wetterverlauf

Letzte Wetterlage 24.04.2014 12:30
Wetterdiagramm
Tabellarische Darstellung
Datum Temperatur Windchill Feuchte Luftdruck Windrichtung Windstärke Niederschlag
24.04.2014 12:45 24 °C 24 °C 48 % 1018,6 hPa 47 0.0 0,00 mm
24.04.2014 12:30 25 °C 25 °C 53 % 1018,8 hPa 165 0.0 0,00 mm
24.04.2014 12:10 23 °C 23 °C 53 % 1018,9 hPa 315 0.0 0,00 mm
24.04.2014 12:00 24 °C 24 °C 51 % 1019,1 hPa 351 0.0 0,00 mm
24.04.2014 11:45 23 °C 23 °C 56 % 1019,3 hPa 304 0.0 0,00 mm
24.04.2014 11:30 23 °C 23 °C 57 % 1019,4 hPa 258 0.0 0,00 mm
24.04.2014 11:10 22 °C 22 °C 60 % 1019,7 hPa 270 0.0 0,00 mm
24.04.2014 11:00 22 °C 22 °C 65 % 1019,8 hPa 347 0.0 0,00 mm
24.04.2014 10:45 20 °C 20 °C 69 % 1019,8 hPa 250 0.0 0,00 mm
24.04.2014 10:30 17 °C 17 °C 78 % 1020,0 hPa 80 0.0 0,00 mm
24.04.2014 10:10 16 °C 16 °C 79 % 1020,1 hPa 90 0.0 0,00 mm
24.04.2014 10:00 16 °C 16 °C 76 % 1020,2 hPa 35 0.0 0,00 mm
24.04.2014 09:45 18 °C 18 °C 71 % 1020,3 hPa 251 0.0 0,00 mm
24.04.2014 09:30 17 °C 17 °C 73 % 1020,2 hPa 24 0.0 0,00 mm
24.04.2014 09:10 15 °C 15 °C 86 % 1020,3 hPa 0 0.0 0,00 mm
24.04.2014 09:00 13 °C 13 °C 85 % 1020,3 hPa 301 0.0 0,00 mm
24.04.2014 08:45 13 °C 13 °C 94 % 1020,4 hPa 106 0.0 0,00 mm
24.04.2014 08:30 10 °C 10 °C 99 % 1020,3 hPa 130 0.0 0,00 mm
24.04.2014 08:10 8 °C 8 °C 99 % 1020,3 hPa 315 0.0 0,00 mm
24.04.2014 08:00 7 °C 7 °C 99 % 1020,3 hPa 339 0.0 0,00 mm
24.04.2014 07:45 7 °C 7 °C 99 % 1020,2 hPa 126 0.0 0,00 mm
24.04.2014 07:30 6 °C 6 °C 99 % 1020,2 hPa 225 0.0 0,00 mm
24.04.2014 07:10 5 °C 5 °C 99 % 1020,1 hPa 225 0.0 0,00 mm
24.04.2014 07:00 5 °C 5 °C 99 % 1020,0 hPa 225 0.0 0,00 mm
24.04.2014 06:45 4 °C 4 °C 99 % 1020,1 hPa 225 0.0 0,00 mm
1
Empfehlen Sie wetter.com
| Mehr
Neue Wetterwarnung

Neue Niederschlagsmeldung
Neue Meldung
Regen Liveticker
    sehr starker Regen/Gewitter
    starker Regen/Gewitter
    mäßiger bis starker Regen
    mäßiger Regen
    leichter bis mäßiger Regen
    kein Regen